Terminal Aerodrome Forecast
Issued by NWS

Home | Current Version | Previous Version | Text Only | Print | Product List | Glossary On
Versions: 1 2 3 4 5 6 7 8 9 10 11 12 13 14 15 16 17 18 19 20 21 22 23
000
FTUS42 KTBW 031441 AAA
TAFPIE
TAF AMD
KPIE 031441Z 0315/0412 26010KT 6SM -RA BR VCTS SCT007 BKN035CB
      TEMPO 0315/0316 VRB20G30KT 2SM +TSRA BKN015CB
     FM031600 23014G20KT P6SM -RA VCTS SCT025CB OVC050
     FM031800 25017G26KT P6SM VCTS SCT025CB BKN050 OVC080
     FM040200 24008KT P6SM SCT020 BKN035 OVC050
     FM040600 23007KT P6SM VCSH SCT035 BKN100 OVC250=

USA.gov is the U.S. government's official web portal to all federal, state and local government web resources and services.